Time;durP1;ratioP1;P1;durP2;ratioP2;P2;SDS_P1;SDS_P2;PMS_P1;PMS_P2;Temp;Humidity;BMP_temperature;BMP_pressure;BME280_temperature;BME280_humidity;BME280_pressure;Samples;Min_cycle;Max_cycle;Signal;HPM_P1;HPM_P2
2023/08/24 00:02:01;;;;;;;0.00;0.00;;;;;;;24.83;100.00;101752.53;10494377;28;20064;-78
2023/08/24 00:07:03;;;;;;;0.03;0.03;;;;;;;25.29;100.00;101737.47;10485225;28;20075;-78
2023/08/24 00:12:06;;;;;;;0.00;0.00;;;;;;;25.15;100.00;101729.00;10477725;28;20044;-78
2023/08/24 00:17:08;;;;;;;0.00;0.00;;;;;;;24.45;100.00;101713.75;10494412;28;20036;-78
2023/08/24 00:22:09;;;;;;;0.03;0.03;;;;;;;24.62;100.00;101714.28;10468672;28;20044;-79
2023/08/24 00:27:13;;;;;;;0.00;0.00;;;;;;;24.79;100.00;101724.53;10443703;28;1017298;-79
2023/08/24 00:32:15;;;;;;;0.00;0.00;;;;;;;25.21;100.00;101710.41;10488277;28;20045;-79
2023/08/24 00:37:16;;;;;;;0.05;0.03;;;;;;;23.96;100.00;101705.84;10485911;28;20052;-78
2023/08/24 00:42:18;;;;;;;0.10;0.00;;;;;;;25.03;100.00;101695.88;10470318;28;20045;-79
2023/08/24 00:47:20;;;;;;;0.00;0.00;;;;;;;25.23;100.00;101711.25;10474402;28;20051;-79
2023/08/24 00:52:21;;;;;;;0.00;0.00;;;;;;;24.89;100.00;101712.00;10475807;28;20040;-78
2023/08/24 00:57:23;;;;;;;0.00;0.00;;;;;;;24.67;100.00;101712.47;10485496;28;20052;-79
2023/08/24 01:02:25;;;;;;;0.00;0.00;;;;;;;24.13;100.00;101704.69;10474415;28;20051;-78
2023/08/24 01:07:27;;;;;;;0.00;0.00;;;;;;;23.99;100.00;101679.50;10487143;28;20029;-79
2023/08/24 01:13:01;;;;;;;0.20;0.17;;;;;;;24.81;100.00;101690.22;10470646;28;20098;-78
2023/08/24 01:18:13;;;;;;;0.17;0.17;;;;;;;24.14;100.00;101709.91;10469896;28;20044;-79
2023/08/24 01:23:28;;;;;;;0.10;0.10;;;;;;;25.41;100.00;101707.34;10470818;28;20503;-79
2023/08/24 01:28:30;;;;;;;0.10;0.10;;;;;;;25.14;100.00;101688.63;10473093;28;20495;-79
2023/08/24 01:33:34;;;;;;;0.00;0.00;;;;;;;25.46;100.00;101672.97;10469777;28;20419;-78
2023/08/24 01:38:35;;;;;;;0.00;0.00;;;;;;;25.48;100.00;101665.88;10459444;28;20043;-78
2023/08/24 01:43:39;;;;;;;0.00;0.00;;;;;;;25.89;100.00;101671.88;10476444;28;20102;-78
2023/08/24 01:48:45;;;;;;;0.13;0.13;;;;;;;25.76;100.00;101670.44;10475988;28;20064;-78
2023/08/24 01:53:47;;;;;;;0.00;0.00;;;;;;;24.82;100.00;101665.59;10472020;28;20040;-78
2023/08/24 01:58:49;;;;;;;0.00;0.00;;;;;;;25.54;100.00;101660.44;10493573;28;20044;-78
2023/08/24 02:03:50;;;;;;;0.10;0.00;;;;;;;25.83;100.00;101660.63;10494876;28;20132;-78
2023/08/24 02:08:52;;;;;;;0.10;0.10;;;;;;;25.45;100.00;101676.50;10490825;28;20044;-78
2023/08/24 02:13:54;;;;;;;0.00;0.00;;;;;;;24.19;100.00;101667.72;10470664;28;20049;-78
2023/08/24 02:18:55;;;;;;;0.03;0.03;;;;;;;25.11;100.00;101664.09;10483305;28;20058;-79
2023/08/24 02:23:57;;;;;;;0.00;0.00;;;;;;;24.83;100.00;101672.63;10492348;28;20037;-78
2023/08/24 02:28:59;;;;;;;0.47;0.20;;;;;;;25.29;100.00;101678.59;10473393;28;20473;-78
2023/08/24 02:34:01;;;;;;;0.05;0.03;;;;;;;25.22;100.00;101675.22;10491743;28;20052;-78
2023/08/24 02:39:02;;;;;;;0.40;0.30;;;;;;;25.69;100.00;101674.16;10470375;28;20036;-78
2023/08/24 02:44:04;;;;;;;0.00;0.00;;;;;;;25.79;100.00;101680.94;10470042;28;20139;-79
2023/08/24 02:49:05;;;;;;;0.38;0.25;;;;;;;25.83;100.00;101687.88;10467008;28;20048;-79
2023/08/24 02:54:07;;;;;;;0.00;0.00;;;;;;;25.06;100.00;101679.16;10492171;28;20052;-79
2023/08/24 02:59:08;;;;;;;0.10;0.00;;;;;;;24.89;100.00;101653.16;10465425;28;20044;-79
2023/08/24 03:04:10;;;;;;;0.30;0.22;;;;;;;26.38;100.00;101655.63;10470287;28;20053;-79
2023/08/24 03:09:12;;;;;;;0.08;0.08;;;;;;;24.45;100.00;101661.09;10465301;28;20041;-78
2023/08/24 03:14:14;;;;;;;0.00;0.00;;;;;;;24.78;100.00;101663.91;10456581;28;20072;-78
2023/08/24 03:19:17;;;;;;;0.00;0.00;;;;;;;25.78;100.00;101648.38;10453834;28;20048;-79
2023/08/24 03:24:19;;;;;;;0.13;0.13;;;;;;;26.27;100.00;101646.22;10473169;28;20086;-78
2023/08/24 03:29:21;;;;;;;0.00;0.00;;;;;;;26.28;100.00;101624.19;10484265;28;20101;-78
2023/08/24 03:34:23;;;;;;;0.05;0.03;;;;;;;26.14;100.00;101602.59;10466716;28;20045;-78
2023/08/24 03:39:24;;;;;;;0.82;0.30;;;;;;;25.63;100.00;101581.06;10468678;28;20099;-78
2023/08/24 03:44:26;;;;;;;0.00;0.00;;;;;;;25.66;100.00;101580.97;10473504;28;20052;-78
2023/08/24 03:49:28;;;;;;;0.50;0.30;;;;;;;25.32;100.00;101584.47;10472389;28;20037;-78
2023/08/24 03:54:30;;;;;;;0.30;0.28;;;;;;;26.24;100.00;101572.38;10471778;28;20044;-78
2023/08/24 03:59:31;;;;;;;0.10;0.05;;;;;;;25.14;100.00;101572.59;10452698;28;20083;-78
2023/08/24 04:04:33;;;;;;;0.70;0.10;;;;;;;25.75;100.00;101586.91;10487829;28;20082;-78
2023/08/24 04:09:34;;;;;;;0.43;0.20;;;;;;;26.65;100.00;101587.91;10470321;28;20056;-79
2023/08/24 04:14:36;;;;;;;0.00;0.00;;;;;;;26.99;100.00;101580.72;10469457;28;20039;-79
2023/08/24 04:19:38;;;;;;;0.00;0.00;;;;;;;25.88;100.00;101585.66;10474554;28;20041;-79
2023/08/24 04:24:40;;;;;;;0.52;0.40;;;;;;;24.26;100.00;101548.22;10472069;28;20041;-79
2023/08/24 04:29:41;;;;;;;0.85;0.57;;;;;;;25.87;100.00;101549.63;10475705;28;20084;-79
2023/08/24 04:34:43;;;;;;;0.43;0.40;;;;;;;24.43;100.00;101547.00;10470465;28;20056;-79
2023/08/24 04:39:44;;;;;;;0.20;0.13;;;;;;;25.24;100.00;101552.13;10495114;28;20052;-78
2023/08/24 04:44:46;;;;;;;0.00;0.00;;;;;;;25.60;100.00;101548.63;10496448;28;20075;-78
2023/08/24 04:49:47;;;;;;;0.70;0.45;;;;;;;23.77;100.00;101553.56;10495191;28;20048;-78
2023/08/24 04:54:49;;;;;;;0.85;0.45;;;;;;;24.50;100.00;101540.69;10487256;28;20106;-79
2023/08/24 04:59:50;;;;;;;0.25;0.00;;;;;;;25.05;100.00;101537.69;10493657;28;20456;-79
2023/08/24 05:04:52;;;;;;;0.00;0.00;;;;;;;25.02;100.00;101535.97;10492672;28;20047;-78
2023/08/24 05:09:53;;;;;;;0.10;0.10;;;;;;;25.71;100.00;101535.13;10475706;28;20048;-78
2023/08/24 05:14:55;;;;;;;0.65;0.20;;;;;;;26.42;100.00;101533.09;10495938;28;20048;-78
2023/08/24 05:19:57;;;;;;;0.57;0.52;;;;;;;26.86;100.00;101533.50;10482946;28;20553;-78
2023/08/24 05:24:59;;;;;;;0.17;0.17;;;;;;;26.33;100.00;101531.59;10480570;28;20052;-78
2023/08/24 05:30:00;;;;;;;0.32;0.20;;;;;;;27.02;100.00;101536.53;10482161;28;20044;-79
2023/08/24 05:35:02;;;;;;;0.28;0.20;;;;;;;27.27;100.00;101538.31;10468184;28;20037;-78
2023/08/24 05:40:05;;;;;;;0.00;0.00;;;;;;;26.75;100.00;101535.59;10470552;28;20117;-79
2023/08/24 05:45:07;;;;;;;0.10;0.03;;;;;;;27.02;100.00;101544.44;10473380;28;20123;-79
2023/08/24 05:50:08;;;;;;;0.10;0.10;;;;;;;27.18;100.00;101544.78;10471450;28;20044;-79
2023/08/24 05:55:10;;;;;;;0.17;0.10;;;;;;;28.09;100.00;101547.81;10476817;28;20071;-79
2023/08/24 06:00:12;;;;;;;0.00;0.00;;;;;;;28.42;100.00;101535.06;10475310;28;20044;-79
2023/08/24 06:05:17;;;;;;;0.10;0.03;;;;;;;28.67;100.00;101536.75;10490096;28;20058;-79
2023/08/24 06:10:19;;;;;;;0.55;0.30;;;;;;;27.48;100.00;101542.03;10447865;28;20445;-79
2023/08/24 06:15:24;;;;;;;0.30;0.20;;;;;;;28.76;100.00;101523.16;10458074;28;20052;-77
2023/08/24 06:20:25;;;;;;;0.10;0.10;;;;;;;28.30;100.00;101517.00;10471256;28;20035;-78
2023/08/24 06:25:27;;;;;;;0.65;0.40;;;;;;;27.91;100.00;101512.28;10476272;28;20041;-78
2023/08/24 06:30:28;;;;;;;0.10;0.10;;;;;;;28.16;100.00;101515.75;10491704;28;20055;-78
2023/08/24 06:35:30;;;;;;;0.10;0.10;;;;;;;28.10;100.00;101502.75;10491187;28;20032;-78
2023/08/24 06:40:32;;;;;;;2.90;0.30;;;;;;;28.64;100.00;101476.75;10491331;28;20040;-78
2023/08/24 06:45:33;;;;;;;0.35;0.35;;;;;;;28.92;100.00;101464.19;10491351;28;20853;-79
2023/08/24 06:50:36;;;;;;;0.55;0.20;;;;;;;28.07;100.00;101457.84;10473061;28;20465;-79
2023/08/24 06:55:38;;;;;;;0.60;0.40;;;;;;;30.10;100.00;101453.66;10491847;28;20127;-78
2023/08/24 07:00:39;;;;;;;0.52;0.30;;;;;;;28.47;100.00;101465.97;10472780;28;20090;-78
2023/08/24 07:05:41;;;;;;;0.65;0.43;;;;;;;30.29;100.00;101461.59;10492709;28;20116;-79
2023/08/24 07:10:43;;;;;;;1.20;0.45;;;;;;;31.47;100.00;101476.03;10490939;28;20037;-79
2023/08/24 07:15:45;;;;;;;0.82;0.50;;;;;;;31.07;100.00;101471.94;10461458;28;20049;-79
2023/08/24 07:20:46;;;;;;;0.30;0.30;;;;;;;31.31;100.00;101465.31;10472600;28;20049;-78
2023/08/24 07:25:48;;;;;;;0.65;0.20;;;;;;;30.99;100.00;101475.84;10468138;28;20510;-79
2023/08/24 07:30:50;;;;;;;0.35;0.35;;;;;;;31.70;100.00;101459.78;10469863;28;20098;-80
2023/08/24 07:35:51;;;;;;;1.42;0.70;;;;;;;31.89;100.00;101449.84;10481611;28;20044;-81
2023/08/24 07:40:53;;;;;;;0.10;0.10;;;;;;;32.21;100.00;101444.50;10461300;28;20085;-81
2023/08/24 07:45:54;;;;;;;0.75;0.55;;;;;;;31.86;100.00;101454.47;10472338;28;20097;-81
2023/08/24 07:50:56;;;;;;;0.60;0.60;;;;;;;33.89;100.00;101462.06;10495461;28;20055;-81
2023/08/24 07:55:58;;;;;;;0.60;0.60;;;;;;;34.20;100.00;101459.22;10480061;28;20051;-79
2023/08/24 08:01:00;;;;;;;0.15;0.15;;;;;;;34.43;100.00;101463.94;10497046;28;20419;-79
2023/08/24 08:06:03;;;;;;;0.40;0.22;;;;;;;33.86;100.00;101462.28;10494364;28;20052;-79
2023/08/24 08:11:05;;;;;;;0.00;0.00;;;;;;;34.54;100.00;101457.00;10498797;28;20051;-80
2023/08/24 08:16:07;;;;;;;0.20;0.20;;;;;;;34.97;100.00;101456.78;10478964;28;20057;-80
2023/08/24 08:21:10;;;;;;;0.35;0.22;;;;;;;34.53;100.00;101455.28;10475789;28;20036;-80
2023/08/24 08:26:15;;;;;;;0.10;0.10;;;;;;;35.00;100.00;101458.41;10466982;28;20044;-81
2023/08/24 08:31:17;;;;;;;0.43;0.30;;;;;;;34.50;100.00;101455.50;10479952;28;20189;-81
2023/08/24 08:36:22;;;;;;;0.13;0.10;;;;;;;34.29;100.00;101447.94;10498290;28;20127;-80
2023/08/24 08:41:30;;;;;;;0.32;0.20;;;;;;;34.94;100.00;101448.97;10477767;28;20617;-80
2023/08/24 08:46:34;;;;;;;0.30;0.30;;;;;;;34.37;100.00;101453.63;10497531;28;20044;-80
2023/08/24 08:51:36;;;;;;;0.10;0.10;;;;;;;34.63;100.00;101451.03;10497693;28;20029;-80
2023/08/24 08:56:38;;;;;;;0.52;0.40;;;;;;;33.91;100.00;101435.25;10495868;28;20071;-81
2023/08/24 09:01:40;;;;;;;0.25;0.15;;;;;;;33.69;100.00;101428.59;10492169;28;20427;-80
2023/08/24 09:06:41;;;;;;;0.30;0.30;;;;;;;34.31;100.00;101408.56;10472274;28;20037;-80
2023/08/24 09:11:47;;;;;;;0.85;0.30;;;;;;;34.28;100.00;101390.06;10495327;28;20158;-78
2023/08/24 09:16:49;;;;;;;0.20;0.20;;;;;;;34.77;100.00;101389.41;10496184;28;20048;-80
2023/08/24 09:21:56;;;;;;;0.35;0.20;;;;;;;34.27;100.00;101374.97;10494194;28;20072;-80
2023/08/24 09:26:59;;;;;;;0.22;0.13;;;;;;;35.23;100.00;101371.94;10486230;28;20036;-80
2023/08/24 09:32:00;;;;;;;0.88;0.65;;;;;;;34.56;100.00;101358.78;10481605;28;20048;-77
2023/08/24 09:37:04;;;;;;;8.77;2.65;;;;;;;35.11;100.00;101340.69;10484613;28;20446;-80
2023/08/24 09:42:05;;;;;;;0.10;0.10;;;;;;;34.23;100.00;101326.19;10491447;28;20066;-78
2023/08/24 09:47:11;;;;;;;0.00;0.00;;;;;;;35.32;100.00;101298.13;10467096;28;20052;-79
2023/08/24 09:52:13;;;;;;;0.32;0.25;;;;;;;34.88;100.00;101310.19;10485592;28;20471;-80
2023/08/24 09:57:16;;;;;;;0.25;0.25;;;;;;;35.57;100.00;101297.19;10471049;28;20052;-79
2023/08/24 10:02:23;;;;;;;1.17;0.50;;;;;;;36.42;100.00;101311.41;10469928;28;20048;-77
2023/08/24 10:07:26;;;;;;;0.65;0.47;;;;;;;34.91;100.00;101300.16;10489290;28;20499;-77
2023/08/24 10:12:28;;;;;;;0.52;0.40;;;;;;;35.87;100.00;101300.34;10487005;28;20596;-78
2023/08/24 10:17:35;;;;;;;0.13;0.10;;;;;;;36.21;100.00;101311.22;10468230;28;20041;-77
2023/08/24 10:22:40;;;;;;;2.60;0.30;;;;;;;35.40;100.00;101327.91;10482405;28;20041;-78
2023/08/24 10:27:43;;;;;;;0.28;0.20;;;;;;;36.04;100.00;101323.25;10455193;28;20052;-78
2023/08/24 10:32:45;;;;;;;0.47;0.32;;;;;;;35.99;100.00;101318.22;10492906;28;20055;-80
2023/08/24 10:37:47;;;;;;;0.10;0.10;;;;;;;35.89;100.00;101319.84;10472577;28;20070;-79
2023/08/24 10:42:49;;;;;;;0.00;0.00;;;;;;;35.66;100.00;101295.63;10493264;28;20536;-80
2023/08/24 10:47:53;;;;;;;1.00;0.63;;;;;;;34.86;100.00;101269.28;10474020;28;20568;-79
2023/08/24 10:52:55;;;;;;;0.20;0.10;;;;;;;35.68;100.00;101258.88;10493686;28;20044;-79
2023/08/24 10:58:00;;;;;;;0.10;0.10;;;;;;;35.31;100.00;101250.00;10468421;28;20105;-81
2023/08/24 11:03:02;;;;;;;0.17;0.17;;;;;;;34.62;100.00;101229.94;10491322;28;20550;-80
2023/08/24 11:08:05;;;;;;;0.30;0.30;;;;;;;34.50;100.00;101230.81;10492465;28;20071;-79
2023/08/24 11:13:11;;;;;;;0.00;0.00;;;;;;;34.50;100.00;101230.81;10489704;28;20824;-79
2023/08/24 11:18:18;;;;;;;0.88;0.38;;;;;;;34.31;100.00;101240.94;10473229;28;20404;-78
2023/08/24 11:23:22;;;;;;;0.10;0.10;;;;;;;35.28;100.00;101242.22;10471426;28;20044;-79
2023/08/24 11:28:26;;;;;;;0.10;0.10;;;;;;;34.96;100.00;101251.63;10489431;28;20117;-77
2023/08/24 11:33:35;;;;;;;0.00;0.00;;;;;;;35.04;100.00;101249.22;10493961;28;20051;-79
2023/08/24 11:38:41;;;;;;;0.10;0.10;;;;;;;34.71;100.00;101252.47;10478037;28;20090;-78
2023/08/24 11:43:47;;;;;;;0.00;0.00;;;;;;;33.62;100.00;101264.31;10483418;28;20044;-78
2023/08/24 11:48:49;;;;;;;0.35;0.20;;;;;;;33.28;100.00;101259.34;10470015;28;20050;-78
2023/08/24 11:53:51;;;;;;;0.00;0.00;;;;;;;33.91;100.00;101266.91;10477349;28;20560;-78
2023/08/24 11:58:53;;;;;;;0.00;0.00;;;;;;;34.70;100.00;101270.38;10471266;28;20071;-78
2023/08/24 12:03:54;;;;;;;0.28;0.28;;;;;;;34.71;100.00;101229.28;10486607;28;20044;-78
2023/08/24 12:08:57;;;;;;;0.05;0.05;;;;;;;35.03;100.00;101207.38;10489985;28;20036;-80
2023/08/24 12:13:58;;;;;;;0.00;0.00;;;;;;;35.53;100.00;101198.41;10487714;28;20045;-78
2023/08/24 12:19:02;;;;;;;0.05;0.05;;;;;;;34.16;100.00;101192.06;10475148;28;20458;-77
2023/08/24 12:24:05;;;;;;;1.58;0.90;;;;;;;34.28;100.00;101189.50;10474719;28;20042;-76
2023/08/24 12:29:09;;;;;;;0.05;0.05;;;;;;;34.05;100.00;101178.59;10489532;28;20055;-78
2023/08/24 12:34:13;;;;;;;1.25;0.55;;;;;;;34.22;100.00;101171.22;10485841;28;20481;-77
2023/08/24 12:39:15;;;;;;;1.10;0.50;;;;;;;34.45;100.00;101165.09;10480669;28;20037;-78
2023/08/24 12:44:17;;;;;;;0.47;0.30;;;;;;;33.40;100.00;101158.91;10463745;28;20099;-78
2023/08/24 12:49:18;;;;;;;0.32;0.10;;;;;;;33.33;100.00;101139.78;10482712;28;20048;-78
2023/08/24 12:54:20;;;;;;;0.00;0.00;;;;;;;33.78;100.00;101128.72;10477830;28;20044;-80
2023/08/24 12:59:22;;;;;;;0.20;0.20;;;;;;;34.71;100.00;101127.59;10477399;28;20094;-77
2023/08/24 13:04:24;;;;;;;0.68;0.63;;;;;;;34.09;100.00;101117.75;10484181;28;20065;-78
2023/08/24 13:09:25;;;;;;;0.00;0.00;;;;;;;34.30;100.00;101112.69;10483071;28;20045;-76
2023/08/24 13:14:27;;;;;;;0.30;0.30;;;;;;;34.62;100.00;101101.50;10490951;28;20502;-78
2023/08/24 13:19:29;;;;;;;0.32;0.30;;;;;;;33.81;100.00;101080.44;10472449;28;20054;-77
2023/08/24 13:24:30;;;;;;;1.05;0.63;;;;;;;33.50;100.00;101082.56;10482838;28;20053;-76
2023/08/24 13:29:32;;;;;;;0.10;0.10;;;;;;;33.30;100.00;101081.19;10488168;28;20049;-76
2023/08/24 13:34:33;;;;;;;0.20;0.20;;;;;;;32.27;100.00;101081.63;10485147;28;20048;-78
2023/08/24 13:39:35;;;;;;;0.25;0.20;;;;;;;32.51;100.00;101080.16;10482006;28;20044;-78
2023/08/24 13:44:37;;;;;;;0.10;0.10;;;;;;;31.90;100.00;101091.91;10488862;28;20044;-77
2023/08/24 13:49:39;;;;;;;0.10;0.10;;;;;;;31.07;100.00;101105.59;10467034;28;20044;-76
2023/08/24 13:54:43;;;;;;;0.82;0.70;;;;;;;30.95;100.00;101096.50;10486872;28;20342;-77
2023/08/24 13:59:44;;;;;;;2.17;1.40;;;;;;;31.02;100.00;101100.53;10467167;28;20415;-77
2023/08/24 14:04:46;;;;;;;0.40;0.38;;;;;;;30.81;100.00;101099.09;10466770;28;20048;-76
2023/08/24 14:09:47;;;;;;;0.40;0.40;;;;;;;31.36;100.00;101096.88;10468051;28;20045;-77
2023/08/24 14:15:06;;;;;;;1.42;0.50;;;;;;;32.19;100.00;101089.22;10480818;28;20050;-77
2023/08/24 14:20:09;;;;;;;0.45;0.30;;;;;;;30.96;100.00;101087.59;10484703;28;20094;-77
2023/08/24 14:25:10;;;;;;;0.30;0.13;;;;;;;31.49;100.00;101092.56;10474568;28;20048;-77
2023/08/24 14:30:13;;;;;;;0.50;0.45;;;;;;;31.20;100.00;101083.63;10466672;28;20047;-77
2023/08/24 14:35:15;;;;;;;1.27;0.52;;;;;;;32.18;100.00;101068.84;10464837;28;20119;-75
2023/08/24 14:40:19;;;;;;;0.50;0.38;;;;;;;31.60;100.00;101074.13;10476731;28;20511;-77
2023/08/24 14:45:21;;;;;;;0.60;0.30;;;;;;;32.05;100.00;101076.75;10476779;28;20166;-76
2023/08/24 14:50:22;;;;;;;1.13;0.88;;;;;;;30.53;100.00;101060.78;10466146;28;20594;-76
2023/08/24 14:55:24;;;;;;;1.02;0.88;;;;;;;30.68;100.00;101059.91;10476784;28;20105;-78
2023/08/24 15:00:26;;;;;;;0.50;0.50;;;;;;;31.48;100.00;101056.22;10468101;28;20055;-77
2023/08/24 15:05:27;;;;;;;2.00;0.90;;;;;;;30.55;100.00;101056.22;10488586;28;20059;-77
2023/08/24 15:10:29;;;;;;;0.70;0.70;;;;;;;30.97;100.00;101052.06;10489758;28;20056;-78
2023/08/24 15:15:35;;;;;;;0.80;0.47;;;;;;;30.64;100.00;101055.69;10486712;28;20157;-77
2023/08/24 15:20:37;;;;;;;1.27;0.88;;;;;;;30.74;100.00;101052.53;10485036;28;20036;-76
2023/08/24 15:25:38;;;;;;;0.55;0.55;;;;;;;31.16;100.00;101067.00;10468541;28;20098;-77
2023/08/24 15:30:40;;;;;;;0.40;0.38;;;;;;;31.46;100.00;101052.81;10483780;28;20396;-78
2023/08/24 15:35:42;;;;;;;0.57;0.30;;;;;;;31.22;100.00;101044.47;10488058;28;20040;-77
2023/08/24 15:40:52;;;;;;;0.30;0.30;;;;;;;30.97;100.00;101044.06;10469254;28;20040;-79
2023/08/24 15:45:54;;;;;;;3.00;0.57;;;;;;;31.50;100.00;101038.34;10471083;28;20036;-78
2023/08/24 15:50:58;;;;;;;1.50;0.70;;;;;;;30.66;100.00;101027.22;10470931;28;20392;-77
2023/08/24 15:56:00;;;;;;;1.65;0.93;;;;;;;30.60;100.00;101027.56;10469722;28;20044;-78
2023/08/24 16:01:03;;;;;;;0.73;0.43;;;;;;;31.59;100.00;101015.63;10486555;28;20036;-78
2023/08/24 16:06:05;;;;;;;1.08;0.38;;;;;;;31.90;100.00;101009.31;10464305;28;20478;-77
2023/08/24 16:11:07;;;;;;;0.20;0.20;;;;;;;31.18;100.00;101001.22;10472072;28;20049;-76
2023/08/24 16:16:08;;;;;;;0.50;0.28;;;;;;;31.66;100.00;100984.19;10492008;28;20056;-78
2023/08/24 16:21:10;;;;;;;0.35;0.32;;;;;;;31.29;100.00;100972.16;10487347;28;20106;-77
2023/08/24 16:26:11;;;;;;;0.38;0.28;;;;;;;31.17;100.00;100972.88;10493580;28;20565;-78
2023/08/24 16:31:13;;;;;;;0.57;0.35;;;;;;;30.56;100.00;100956.94;10492503;28;20100;-77
2023/08/24 16:36:15;;;;;;;0.32;0.17;;;;;;;31.49;100.00;100962.09;10486488;28;20075;-77
2023/08/24 16:41:16;;;;;;;0.22;0.22;;;;;;;31.19;100.00;100949.72;10490880;28;20040;-77
2023/08/24 16:46:18;;;;;;;1.05;0.45;;;;;;;31.54;100.00;100961.81;10475832;28;20465;-77
2023/08/24 16:51:19;;;;;;;0.45;0.38;;;;;;;30.73;100.00;100963.06;10467319;28;20047;-77
2023/08/24 16:56:21;;;;;;;0.45;0.30;;;;;;;30.56;100.00;100962.25;10493215;28;20048;-78
2023/08/24 17:01:22;;;;;;;0.28;0.15;;;;;;;29.89;100.00;100975.66;10493394;28;20756;-77
2023/08/24 17:06:24;;;;;;;0.80;0.50;;;;;;;29.92;100.00;100970.19;10467719;28;20058;-77
2023/08/24 17:11:25;;;;;;;0.20;0.20;;;;;;;30.28;100.00;100977.06;10475503;28;20458;-79
2023/08/24 17:16:27;;;;;;;0.77;0.52;;;;;;;30.10;100.00;100986.91;10491781;28;20041;-78
2023/08/24 17:21:29;;;;;;;0.20;0.20;;;;;;;29.86;100.00;100989.09;10490215;28;20037;-78
2023/08/24 17:26:31;;;;;;;0.45;0.30;;;;;;;31.11;100.00;100978.59;10471898;28;20178;-77
2023/08/24 17:31:32;;;;;;;2.28;1.30;;;;;;;30.14;100.00;100972.53;10473464;28;20044;-78
2023/08/24 17:36:34;;;;;;;0.25;0.25;;;;;;;30.47;100.00;100960.06;10492582;28;20041;-77
2023/08/24 17:41:37;;;;;;;0.17;0.15;;;;;;;30.54;100.00;100940.22;10489323;28;20053;-78
2023/08/24 17:46:39;;;;;;;0.30;0.30;;;;;;;30.49;100.00;100935.13;10465949;28;20048;-77
2023/08/24 17:51:40;;;;;;;0.20;0.20;;;;;;;30.66;100.00;100920.03;10488584;28;20045;-77
2023/08/24 17:56:42;;;;;;;1.35;0.40;;;;;;;30.84;100.00;100902.13;10487759;28;20037;-77
2023/08/24 18:01:43;;;;;;;0.20;0.10;;;;;;;30.64;100.00;100909.47;10487047;28;20474;-77
2023/08/24 18:06:45;;;;;;;0.20;0.20;;;;;;;30.12;100.00;100915.97;10469829;28;20051;-76
2023/08/24 18:11:46;;;;;;;0.22;0.10;;;;;;;29.55;100.00;100917.28;10490093;28;20048;-76
2023/08/24 18:16:48;;;;;;;0.00;0.00;;;;;;;30.04;100.00;100897.81;10466019;28;20052;-76
2023/08/24 18:21:49;;;;;;;0.88;0.88;;;;;;;29.73;100.00;100895.97;10466907;28;20040;-78
2023/08/24 18:26:54;;;;;;;0.20;0.13;;;;;;;29.67;100.00;100889.22;10472649;28;20495;-76
2023/08/24 18:31:56;;;;;;;0.30;0.30;;;;;;;30.10;100.00;100887.78;10489992;28;20036;-78
2023/08/24 18:36:58;;;;;;;0.10;0.10;;;;;;;29.64;100.00;100886.72;10490321;28;20044;-76
2023/08/24 18:41:59;;;;;;;0.00;0.00;;;;;;;30.37;100.00;100888.84;10470956;28;20094;-77
2023/08/24 18:47:05;;;;;;;0.95;0.20;;;;;;;30.50;100.00;100893.44;10489608;28;20044;-78
2023/08/24 18:52:06;;;;;;;0.40;0.20;;;;;;;29.79;100.00;100892.13;10487714;28;20051;-78
2023/08/24 18:57:08;;;;;;;1.00;0.40;;;;;;;30.81;100.00;100878.34;10482581;28;20515;-77
2023/08/24 19:02:13;;;;;;;0.10;0.10;;;;;;;30.66;100.00;100873.00;10489175;28;20110;-78
2023/08/24 19:07:15;;;;;;;0.08;0.08;;;;;;;30.10;100.00;100893.09;10470451;28;20075;-77
2023/08/24 19:12:16;;;;;;;0.00;0.00;;;;;;;29.59;100.00;100886.13;10470798;28;20049;-78
2023/08/24 19:17:18;;;;;;;0.40;0.30;;;;;;;28.90;100.00;100888.78;10483709;28;20101;-76
2023/08/24 19:22:19;;;;;;;0.10;0.10;;;;;;;29.01;100.00;100911.25;10480290;28;20557;-77
2023/08/24 19:27:23;;;;;;;0.30;0.30;;;;;;;29.36;100.00;100906.78;10488127;28;20102;-77
2023/08/24 19:32:24;;;;;;;0.43;0.10;;;;;;;28.55;100.00;100917.06;10468913;28;20507;-76
2023/08/24 19:37:26;;;;;;;0.43;0.30;;;;;;;29.01;100.00;100916.56;10487549;28;20045;-77
2023/08/24 19:42:29;;;;;;;2.00;0.45;;;;;;;29.37;100.00;100911.16;10486402;28;20048;-77
2023/08/24 19:47:31;;;;;;;0.25;0.15;;;;;;;28.21;100.00;100926.66;10495925;28;20068;-77
2023/08/24 19:52:33;;;;;;;0.10;0.00;;;;;;;28.34;100.00;100906.56;10494973;28;20044;-76
2023/08/24 19:57:35;;;;;;;0.40;0.40;;;;;;;28.78;100.00;100902.69;10487437;28;20118;-76
2023/08/24 20:02:36;;;;;;;1.95;1.45;;;;;;;28.69;100.00;100896.06;10486787;28;20037;-77
2023/08/24 20:07:39;;;;;;;0.00;0.00;;;;;;;29.70;100.00;100883.72;10491338;28;20059;-76
2023/08/24 20:12:40;;;;;;;0.30;0.25;;;;;;;29.49;100.00;100853.03;10493822;28;20100;-77
2023/08/24 20:17:44;;;;;;;0.85;0.50;;;;;;;28.37;100.00;100865.84;10476528;28;20052;-77
2023/08/24 20:22:46;;;;;;;0.25;0.20;;;;;;;28.95;100.00;100844.34;10471240;28;20044;-77
2023/08/24 20:27:47;;;;;;;0.10;0.10;;;;;;;28.70;100.00;100843.91;10493996;28;20074;-76
2023/08/24 20:32:50;;;;;;;0.03;0.03;;;;;;;29.18;100.00;100849.34;10494014;28;20119;-78
2023/08/24 20:37:51;;;;;;;0.00;0.00;;;;;;;28.12;100.00;100865.25;10490250;28;20049;-76
2023/08/24 20:42:53;;;;;;;0.15;0.15;;;;;;;27.53;100.00;100862.69;10472931;28;20056;-77
2023/08/24 20:47:55;;;;;;;0.03;0.03;;;;;;;27.82;100.00;100843.72;10493242;28;20040;-77
2023/08/24 20:53:00;;;;;;;0.15;0.10;;;;;;;28.32;100.00;100824.53;10472303;28;20546;-77
2023/08/24 20:58:02;;;;;;;0.10;0.10;;;;;;;28.72;100.00;100820.81;10474180;28;20045;-77
2023/08/24 21:03:04;;;;;;;0.38;0.13;;;;;;;28.32;100.00;100824.53;10471098;28;20040;-77
2023/08/24 21:08:06;;;;;;;0.35;0.17;;;;;;;27.69;100.00;100856.66;10488762;28;20067;-76
2023/08/24 21:13:07;;;;;;;0.08;0.05;;;;;;;27.75;100.00;100871.41;10471338;28;20612;-78
2023/08/24 21:18:09;;;;;;;0.00;0.00;;;;;;;27.36;100.00;100871.34;10475472;28;20040;-77
2023/08/24 21:23:10;;;;;;;0.68;0.28;;;;;;;27.77;100.00;100883.63;10464358;28;20051;-76
2023/08/24 21:28:13;;;;;;;0.88;0.52;;;;;;;27.68;100.00;100892.00;10492695;28;20404;-77
2023/08/24 21:33:14;;;;;;;0.47;0.30;;;;;;;27.56;100.00;100896.06;10468102;28;20508;-78
2023/08/24 21:38:16;;;;;;;0.52;0.50;;;;;;;26.80;100.00;100894.06;10461623;28;20131;-77
2023/08/24 21:43:17;;;;;;;0.20;0.20;;;;;;;27.60;100.00;100910.00;10494737;28;20032;-77
2023/08/24 21:48:19;;;;;;;0.00;0.00;;;;;;;27.24;100.00;100924.81;10494735;28;20063;-78
2023/08/24 21:53:20;;;;;;;0.55;0.30;;;;;;;27.44;100.00;100921.28;10466199;28;20465;-79
2023/08/24 21:58:22;;;;;;;0.98;0.40;;;;;;;27.74;100.00;100926.13;10483312;28;20102;-78
2023/08/24 22:03:24;;;;;;;0.70;0.52;;;;;;;28.15;100.00;100928.66;10476390;28;20078;-78
2023/08/24 22:08:26;;;;;;;0.17;0.17;;;;;;;27.55;100.00;100908.44;10475088;28;20052;-78
2023/08/24 22:13:28;;;;;;;0.10;0.08;;;;;;;27.68;100.00;100892.00;10489382;28;20037;-79
2023/08/24 22:18:29;;;;;;;1.15;0.52;;;;;;;27.07;100.00;100885.88;10490952;28;20048;-78
2023/08/24 22:23:31;;;;;;;0.17;0.17;;;;;;;27.31;100.00;100883.94;10490551;28;20457;-77
2023/08/24 22:28:32;;;;;;;0.75;0.75;;;;;;;27.21;100.00;100851.75;10446657;28;20549;-78
2023/08/24 22:33:37;;;;;;;1.00;0.20;;;;;;;27.35;100.00;100837.03;10489834;28;20047;-78
2023/08/24 22:38:39;;;;;;;0.85;0.30;;;;;;;27.92;100.00;100818.53;10488883;28;20047;-77
2023/08/24 22:43:40;;;;;;;5.40;0.60;;;;;;;27.64;100.00;100790.72;10486109;28;20491;-78
2023/08/24 22:48:42;;;;;;;0.10;0.10;;;;;;;26.80;100.00;100755.78;10483774;28;20113;-79
2023/08/24 22:53:43;;;;;;;0.47;0.25;;;;;;;26.84;100.00;100752.94;10485249;28;20045;-78